Time;durP1;ratioP1;P1;durP2;ratioP2;P2;SDS_P1;SDS_P2;PMS_P1;PMS_P2;Temp;Humidity;BMP_temperature;BMP_pressure;BME280_temperature;BME280_humidity;BME280_pressure;Samples;Min_cycle;Max_cycle;Signal;HPM_P1;HPM_P2
2022/02/04 00:06:06;;;;;;;19.60;13.23;;;4.50;76.40;;;;;;5029450;28;20221;-68
2022/02/04 00:25:30;;;;;;;3.60;2.20;;;4.00;77.70;;;;;;4970234;28;20316;-68
2022/02/04 00:28:02;;;;;;;3.78;2.33;;;4.00;78.10;;;;;;5020378;28;20193;-69
2022/02/04 00:30:34;;;;;;;3.10;1.65;;;4.00;79.20;;;;;;5031697;28;20568;-68
2022/02/04 00:33:03;;;;;;;2.67;1.85;;;4.10;79.40;;;;;;5031735;28;20642;-68
2022/02/04 00:35:38;;;;;;;4.32;1.90;;;4.10;79.60;;;;;;5034202;28;20309;-68
2022/02/04 00:38:09;;;;;;;3.03;1.80;;;4.10;79.30;;;;;;5034797;28;20202;-68
2022/02/04 00:40:41;;;;;;;2.40;1.35;;;4.20;79.40;;;;;;5034951;28;20187;-68
2022/02/04 00:43:12;;;;;;;2.55;1.40;;;4.20;79.00;;;;;;5034186;28;20203;-68
2022/02/04 00:45:47;;;;;;;2.20;1.00;;;4.30;79.50;;;;;;5047850;28;20237;-67
2022/02/04 00:48:28;;;;;;;2.20;1.25;;;4.40;79.00;;;;;;5054475;28;20199;-69
2022/02/04 00:51:01;;;;;;;2.13;1.08;;;4.40;79.00;;;;;;5044242;28;20190;-69
2022/02/04 00:53:35;;;;;;;2.80;1.55;;;4.50;79.30;;;;;;5034755;28;20195;-68
2022/02/04 00:56:19;;;;;;;3.30;1.45;;;4.60;79.00;;;;;;5034377;28;20318;-67
2022/02/04 01:26:18;;;;;;;2.80;1.45;;;4.40;76.60;;;;;;5034445;28;20186;-68
2022/02/04 01:28:50;;;;;;;3.65;1.30;;;4.40;76.20;;;;;;5033931;28;20187;-68
2022/02/04 01:31:20;;;;;;;2.58;1.30;;;4.40;76.60;;;;;;5034194;28;20256;-70
2022/02/04 01:33:49;;;;;;;2.75;1.20;;;4.50;76.00;;;;;;5033452;28;20487;-68
2022/02/04 01:36:16;;;;;;;2.88;1.23;;;4.50;75.60;;;;;;5034211;28;20262;-69
2022/02/04 01:38:43;;;;;;;2.05;0.90;;;4.60;75.20;;;;;;5033363;28;20183;-68
2022/02/04 01:41:11;;;;;;;1.88;1.02;;;4.60;75.00;;;;;;5033497;28;20194;-68
2022/02/04 01:43:40;;;;;;;3.03;1.20;;;4.50;75.00;;;;;;5033155;28;20522;-68
2022/02/04 01:46:11;;;;;;;2.05;1.10;;;4.60;74.70;;;;;;5033790;28;20230;-68
2022/02/04 01:48:40;;;;;;;2.00;1.10;;;4.50;74.50;;;;;;5033150;28;20210;-68
2022/02/04 01:51:09;;;;;;;2.55;1.10;;;4.60;74.40;;;;;;5033719;28;20998;-68
2022/02/04 01:53:37;;;;;;;3.15;1.30;;;4.50;74.00;;;;;;5033332;28;20286;-68
2022/02/04 01:56:07;;;;;;;2.78;1.63;;;4.50;74.00;;;;;;5033528;28;20226;-68
2022/02/04 01:58:35;;;;;;;2.88;1.25;;;4.50;74.10;;;;;;5033329;28;20549;-68
2022/02/04 02:01:03;;;;;;;2.58;1.45;;;4.40;73.90;;;;;;5033622;28;20330;-68
2022/02/04 02:03:32;;;;;;;7.53;4.18;;;4.40;73.80;;;;;;5032860;28;20638;-70
2022/02/04 02:06:04;;;;;;;10.77;5.45;;;4.30;74.00;;;;;;5033395;28;20561;-69
2022/02/04 02:08:32;;;;;;;5.70;2.25;;;4.30;74.10;;;;;;5033267;28;20612;-68
2022/02/04 02:10:59;;;;;;;3.65;1.42;;;4.20;74.40;;;;;;5033243;28;20197;-68
2022/02/04 02:13:34;;;;;;;2.42;1.15;;;4.10;74.50;;;;;;5032762;28;20286;-68
2022/02/04 02:16:14;;;;;;;2.63;1.17;;;4.10;74.60;;;;;;5033236;28;20704;-68
2022/02/04 02:33:19;;;;;;;3.45;1.42;;;3.90;75.70;;;;;;5032856;28;20245;-68
2022/02/04 02:36:05;;;;;;;2.03;1.20;;;3.80;74.70;;;;;;5032918;28;20627;-68
2022/02/04 02:44:19;;;;;;;4.25;0.98;;;3.70;74.80;;;;;;5032124;28;20561;-68
2022/02/04 02:52:20;;;;;;;2.20;1.27;;;3.60;75.00;;;;;;5032043;28;20190;-68
2022/02/04 02:55:12;;;;;;;2.78;1.02;;;3.60;75.50;;;;;;5032272;28;20286;-68
2022/02/04 03:00:48;;;;;;;2.83;1.25;;;3.60;75.30;;;;;;5151694;27;20617;-69
2022/02/04 03:03:18;;;;;;;2.35;1.40;;;3.50;75.40;;;;;;5150909;27;20281;-68
2022/02/04 03:05:45;;;;;;;2.13;0.90;;;3.60;74.90;;;;;;5151184;27;20223;-69
2022/02/04 03:08:12;;;;;;;3.22;1.40;;;3.50;74.90;;;;;;5150851;27;20230;-69
2022/02/04 03:10:40;;;;;;;2.58;1.10;;;3.50;74.70;;;;;;5151043;27;20187;-69
2022/02/04 03:13:07;;;;;;;2.58;1.50;;;3.40;74.50;;;;;;5150555;27;20622;-69
2022/02/04 03:15:37;;;;;;;3.22;1.20;;;3.40;74.60;;;;;;5151121;27;20191;-69
2022/02/04 03:18:09;;;;;;;4.13;1.63;;;3.30;75.10;;;;;;5150671;27;20530;-69
2022/02/04 03:20:45;;;;;;;2.33;1.13;;;3.30;75.60;;;;;;5151010;27;20187;-69
2022/02/04 03:23:12;;;;;;;2.70;1.17;;;3.30;76.10;;;;;;5150653;27;20545;-69
2022/02/04 03:25:44;;;;;;;2.75;1.55;;;3.30;76.50;;;;;;5150843;27;20556;-69
2022/02/04 03:28:16;;;;;;;3.60;1.52;;;3.30;76.80;;;;;;5150473;27;20648;-70
2022/02/04 03:30:46;;;;;;;2.95;1.50;;;3.40;76.70;;;;;;5150982;27;20194;-68
2022/02/04 03:33:13;;;;;;;2.28;1.40;;;3.30;76.90;;;;;;5150440;27;20312;-69
2022/02/04 03:35:40;;;;;;;2.53;1.25;;;3.30;77.20;;;;;;5150552;27;20199;-69
2022/02/04 03:38:08;;;;;;;2.70;1.35;;;3.30;76.90;;;;;;5150327;27;20195;-69
2022/02/04 03:40:35;;;;;;;2.83;1.20;;;3.20;74.90;;;;;;5150484;27;20226;-68
2022/02/04 03:43:02;;;;;;;2.95;1.30;;;3.10;73.90;;;;;;5150125;27;20187;-68
2022/02/04 03:45:29;;;;;;;2.88;1.23;;;3.00;74.30;;;;;;5150357;27;20187;-71
2022/02/04 03:47:58;;;;;;;4.00;1.55;;;2.90;74.50;;;;;;5150394;27;20669;-69
2022/02/04 03:50:25;;;;;;;2.78;1.63;;;2.90;75.10;;;;;;5150350;27;20194;-69
2022/02/04 03:52:52;;;;;;;3.97;1.90;;;2.80;75.60;;;;;;5149945;27;20222;-68
2022/02/04 03:55:20;;;;;;;3.90;1.75;;;2.80;75.70;;;;;;5150431;27;20191;-70
2022/02/04 03:57:47;;;;;;;3.80;1.65;;;2.80;76.40;;;;;;5150268;27;20188;-69
2022/02/04 04:00:17;;;;;;;4.28;1.50;;;2.80;77.00;;;;;;5150077;27;20222;-68
2022/02/04 04:02:45;;;;;;;3.25;1.88;;;2.80;77.00;;;;;;5150110;27;20199;-69
2022/02/04 04:05:14;;;;;;;3.08;1.55;;;2.80;77.10;;;;;;5150033;27;20283;-68
2022/02/04 04:07:45;;;;;;;4.00;3.20;;;2.80;76.60;;;;;;5149817;27;20274;-68
2022/02/04 04:10:17;;;;;;;7.07;3.03;;;2.80;77.40;;;;;;5146161;27;20196;-68
2022/02/04 04:12:45;;;;;;;5.28;3.35;;;2.70;79.20;;;;;;5135980;27;20240;-69
2022/02/04 04:15:12;;;;;;;5.90;2.80;;;2.70;79.70;;;;;;5136052;27;20345;-69
2022/02/04 04:17:43;;;;;;;5.30;3.40;;;2.70;80.20;;;;;;5135590;27;20274;-68
2022/02/04 04:20:12;;;;;;;2.60;2.00;;;2.80;80.80;;;;;;5136180;27;20215;-68
2022/02/04 04:22:41;;;;;;;4.10;1.77;;;2.80;81.60;;;;;;5135687;27;20183;-69
2022/02/04 04:25:10;;;;;;;3.83;2.55;;;2.80;82.00;;;;;;5136126;27;20206;-69
2022/02/04 04:27:40;;;;;;;4.93;1.42;;;2.80;81.70;;;;;;5135618;27;20669;-68
2022/02/04 04:30:09;;;;;;;5.28;2.22;;;2.80;83.40;;;;;;5136143;27;21200;-69
2022/02/04 04:32:37;;;;;;;5.15;2.75;;;2.80;83.60;;;;;;5135515;27;20187;-69
2022/02/04 04:35:05;;;;;;;3.65;2.33;;;2.90;84.20;;;;;;5135807;27;20256;-69
2022/02/04 04:37:32;;;;;;;2.95;1.70;;;2.90;86.00;;;;;;5135603;27;20244;-69
2022/02/04 04:40:17;;;;;;;3.47;1.85;;;3.00;86.60;;;;;;5135699;27;20215;-69
2022/02/04 04:42:56;;;;;;;2.72;1.63;;;3.10;86.20;;;;;;5134953;27;20198;-66
2022/02/04 04:45:52;;;;;;;4.35;2.10;;;3.10;85.10;;;;;;5125800;27;20210;-66
2022/02/04 05:29:36;;;;;;;4.95;3.60;;;3.40;83.70;;;;;;5130298;27;20184;-73
2022/02/04 05:32:04;;;;;;;5.75;3.15;;;3.40;83.60;;;;;;5134746;27;20664;-69
2022/02/04 05:34:32;;;;;;;5.07;2.90;;;3.50;83.80;;;;;;5134700;27;20187;-68
2022/02/04 05:37:03;;;;;;;6.80;3.50;;;3.50;83.70;;;;;;5134104;27;20553;-69
2022/02/04 05:39:37;;;;;;;4.65;3.22;;;3.60;83.40;;;;;;5134719;27;20261;-69
2022/02/04 05:42:07;;;;;;;4.20;2.28;;;3.60;82.80;;;;;;5134181;27;20543;-66
2022/02/04 05:44:41;;;;;;;5.03;2.72;;;3.60;82.90;;;;;;5134661;27;20191;-65
2022/02/04 05:47:15;;;;;;;3.63;1.92;;;3.70;82.50;;;;;;5134003;27;20179;-66
2022/02/04 05:49:50;;;;;;;4.25;2.20;;;3.70;82.00;;;;;;5133735;27;20280;-66
2022/02/04 05:52:24;;;;;;;3.72;2.40;;;3.70;81.60;;;;;;5134328;27;20289;-69
2022/02/04 05:55:04;;;;;;;6.32;3.22;;;3.70;81.40;;;;;;5134160;27;20646;-69
2022/02/04 05:57:53;;;;;;;5.13;3.40;;;3.70;81.40;;;;;;5134442;27;20187;-69
2022/02/04 06:00:31;;;;;;;5.28;2.85;;;3.70;81.30;;;;;;5133668;27;20657;-69
2022/02/04 06:03:22;;;;;;;4.38;2.83;;;3.80;81.60;;;;;;5134165;27;20233;-70
2022/02/04 06:06:06;;;;;;;10.55;3.25;;;3.80;81.30;;;;;;5133667;27;20542;-69
2022/02/04 06:08:57;;;;;;;5.82;3.80;;;3.80;81.40;;;;;;5134463;27;20192;-69
2022/02/04 06:11:33;;;;;;;6.53;4.47;;;3.80;81.20;;;;;;5133574;27;20184;-69
2022/02/04 06:14:27;;;;;;;8.02;5.30;;;3.70;81.30;;;;;;5133695;27;20176;-69
2022/02/04 06:22:27;;;;;;;12.20;5.38;;;3.70;80.40;;;;;;5133841;27;20195;-69
2022/02/04 06:24:56;;;;;;;10.75;5.88;;;3.70;80.30;;;;;;5132687;27;20236;-69
2022/02/04 06:27:25;;;;;;;8.45;4.30;;;3.60;79.90;;;;;;5132503;27;20191;-69
2022/02/04 06:29:53;;;;;;;6.95;4.55;;;3.60;79.40;;;;;;5133731;27;20194;-69
2022/02/04 06:32:22;;;;;;;9.63;4.65;;;3.50;79.30;;;;;;5133557;27;20316;-69
2022/02/04 06:34:51;;;;;;;8.25;5.05;;;3.40;79.60;;;;;;5132902;27;20184;-70
2022/02/04 06:37:19;;;;;;;7.93;5.10;;;3.40;79.60;;;;;;5133184;27;20574;-69
2022/02/04 06:39:46;;;;;;;7.55;5.40;;;3.40;79.60;;;;;;5132642;27;20553;-69
2022/02/04 06:42:21;;;;;;;8.48;6.00;;;3.20;80.50;;;;;;5133075;27;20303;-69
2022/02/04 06:44:49;;;;;;;5.53;3.55;;;3.20;81.40;;;;;;5133765;27;20560;-69
2022/02/04 06:47:16;;;;;;;6.95;3.67;;;3.30;81.30;;;;;;5133125;27;20192;-66
2022/02/04 06:49:47;;;;;;;4.13;2.97;;;3.30;81.90;;;;;;5133437;27;20187;-66
2022/02/04 06:52:15;;;;;;;4.78;3.00;;;3.20;82.40;;;;;;5132693;27;20225;-66
2022/02/04 06:54:44;;;;;;;5.13;3.30;;;3.30;82.50;;;;;;5133546;27;20634;-66
2022/02/04 06:57:11;;;;;;;4.63;1.90;;;3.30;82.70;;;;;;5131224;28;20192;-66
2022/02/04 06:59:40;;;;;;;3.10;1.73;;;3.40;82.40;;;;;;5132721;27;20235;-66
2022/02/04 07:02:07;;;;;;;10.10;5.68;;;3.40;82.60;;;;;;5133336;27;20630;-66
2022/02/04 07:04:35;;;;;;;7.75;3.90;;;3.40;82.90;;;;;;5131671;27;20179;-66
2022/02/04 07:07:05;;;;;;;7.07;4.82;;;3.50;83.70;;;;;;5133017;28;20206;-66
2022/02/04 07:09:46;;;;;;;9.95;5.50;;;3.50;84.10;;;;;;5133285;27;20260;-67
2022/02/04 07:12:29;;;;;;;9.73;5.78;;;3.50;85.00;;;;;;5132594;27;20262;-66
2022/02/04 07:18:03;;;;;;;9.15;5.60;;;3.60;86.10;;;;;;5089889;28;20188;-66
2022/02/04 07:20:29;;;;;;;8.27;5.57;;;3.70;86.20;;;;;;5108590;28;20215;-66
2022/02/04 07:22:58;;;;;;;9.60;6.10;;;3.90;86.50;;;;;;5122709;28;20195;-68
2022/02/04 07:25:25;;;;;;;9.20;6.43;;;4.00;86.70;;;;;;5132494;27;20600;-66
2022/02/04 07:27:52;;;;;;;8.57;5.50;;;4.10;86.70;;;;;;5133069;27;20219;-66
2022/02/04 07:30:20;;;;;;;6.72;4.70;;;4.20;86.60;;;;;;5128933;28;20195;-66
2022/02/04 07:32:56;;;;;;;9.45;5.82;;;4.30;86.50;;;;;;5130432;27;20226;-66
2022/02/04 07:38:36;;;;;;;9.30;5.85;;;4.40;86.20;;;;;;5131577;27;20664;-66
2022/02/04 07:40:53;;;;;;;14.75;5.20;;;4.50;85.40;;;;;;5131992;28;20270;-67
2022/02/04 07:41:39;;;;;;;8.43;6.05;;;4.50;85.00;;;;;;5127900;27;20219;-66
2022/02/04 07:44:06;;;;;;;9.00;5.40;;;4.60;85.00;;;;;;5130822;27;20512;-66
2022/02/04 07:46:34;;;;;;;10.15;6.40;;;4.70;84.90;;;;;;5133579;27;20241;-66
2022/02/04 07:49:01;;;;;;;8.10;5.47;;;4.80;84.70;;;;;;5134162;27;20279;-68
2022/02/04 07:51:29;;;;;;;10.02;6.43;;;4.90;84.00;;;;;;5134498;27;20184;-66
2022/02/04 07:53:58;;;;;;;7.70;6.25;;;4.90;84.00;;;;;;5134737;27;20192;-69
2022/02/04 07:56:25;;;;;;;8.05;6.30;;;4.90;84.20;;;;;;5134876;27;20654;-67
2022/02/04 07:58:58;;;;;;;9.23;6.45;;;5.00;84.90;;;;;;5136513;27;20215;-69
2022/02/04 08:01:28;;;;;;;11.55;7.43;;;5.10;85.20;;;;;;5136718;27;20563;-70
2022/02/04 08:04:02;;;;;;;9.82;8.35;;;5.20;85.80;;;;;;5136825;27;20188;-71
2022/02/04 08:06:33;;;;;;;9.38;6.72;;;5.20;85.90;;;;;;5136697;27;20196;-66
2022/02/04 08:09:09;;;;;;;9.35;5.68;;;5.40;86.20;;;;;;5137152;27;20188;-66
2022/02/04 08:14:32;;;;;;;7.47;5.10;;;5.70;84.80;;;;;;5126068;27;20184;-70
2022/02/04 08:34:20;;;;;;;8.05;5.38;;;6.20;83.20;;;;;;5111097;27;20527;-68
2022/02/04 08:37:12;;;;;;;10.68;6.30;;;6.30;83.10;;;;;;5111294;28;20188;-69
2022/02/04 08:48:41;;;;;;;10.88;7.10;;;6.50;83.60;;;;;;5110468;28;20673;-68
2022/02/04 08:51:17;;;;;;;11.48;6.85;;;6.60;83.40;;;;;;5110161;28;20253;-68
2022/02/04 08:54:07;;;;;;;12.52;8.25;;;6.60;83.30;;;;;;5110506;28;20261;-68
2022/02/04 08:56:44;;;;;;;10.57;8.00;;;6.70;82.10;;;;;;5110376;28;20249;-68
2022/02/04 08:59:18;;;;;;;11.35;7.32;;;6.70;82.60;;;;;;5110299;28;20197;-69
2022/02/04 09:01:55;;;;;;;8.82;6.55;;;6.70;83.00;;;;;;5110316;28;20283;-68
2022/02/04 09:04:31;;;;;;;12.32;7.32;;;6.70;82.50;;;;;;5110322;28;20622;-68
2022/02/04 09:07:05;;;;;;;16.98;10.13;;;6.70;82.50;;;;;;5110119;28;20184;-68
2022/02/04 09:09:48;;;;;;;10.95;8.50;;;6.70;82.70;;;;;;5110129;28;20634;-68
2022/02/04 09:16:51;;;;;;;15.38;9.35;;;6.70;83.20;;;;;;5110151;28;20220;-68
2022/02/04 09:18:32;;;;;;;13.63;8.80;;;6.80;83.50;;;;;;5109778;28;20248;-66
2022/02/04 09:21:26;;;;;;;13.02;9.43;;;6.80;83.20;;;;;;5105297;28;20193;-67
2022/02/04 09:23:54;;;;;;;10.75;7.47;;;6.80;82.80;;;;;;5109645;28;20586;-66
2022/02/04 09:26:21;;;;;;;10.73;7.20;;;6.80;82.50;;;;;;5110046;28;20192;-67
2022/02/04 09:28:48;;;;;;;11.35;7.93;;;6.90;82.80;;;;;;5109385;28;20238;-67
2022/02/04 09:31:15;;;;;;;9.20;7.10;;;7.00;82.50;;;;;;5093404;28;20185;-67
2022/02/04 09:33:42;;;;;;;12.68;7.95;;;7.10;83.00;;;;;;5088590;28;20225;-67
2022/02/04 09:36:09;;;;;;;10.32;7.95;;;7.20;83.40;;;;;;5089363;28;20201;-66
2022/02/04 09:38:36;;;;;;;11.32;9.70;;;7.40;83.30;;;;;;5089260;28;20349;-67
2022/02/04 09:41:04;;;;;;;14.73;9.23;;;7.50;83.30;;;;;;5100012;28;20224;-66
2022/02/04 09:43:32;;;;;;;14.50;11.48;;;7.70;83.00;;;;;;5105856;28;20242;-67
2022/02/04 09:46:00;;;;;;;13.40;9.55;;;7.90;82.80;;;;;;5096211;28;20197;-67
2022/02/04 09:48:27;;;;;;;17.65;11.32;;;8.10;82.00;;;;;;5095659;28;20382;-67
2022/02/04 09:50:57;;;;;;;12.35;9.15;;;8.20;80.30;;;;;;5095194;28;20196;-68
2022/02/04 10:13:32;;;;;;;14.80;10.95;;;8.50;77.30;;;;;;5095007;28;20220;-68
2022/02/04 10:18:50;;;;;;;17.65;10.15;;;8.80;77.10;;;;;;5091405;28;20248;-67
2022/02/04 10:21:17;;;;;;;14.45;10.85;;;8.90;76.90;;;;;;5094507;28;20544;-68
2022/02/04 10:23:45;;;;;;;13.98;10.07;;;8.90;76.90;;;;;;5094336;28;20215;-67
2022/02/04 10:26:13;;;;;;;15.13;11.23;;;9.00;76.10;;;;;;5094822;28;20581;-71
2022/02/04 10:28:43;;;;;;;17.10;10.55;;;9.10;75.80;;;;;;5094472;28;20705;-67
2022/02/04 10:31:15;;;;;;;14.70;10.50;;;9.10;75.80;;;;;;5094564;28;20189;-66
2022/02/04 10:33:58;;;;;;;16.35;10.88;;;9.20;76.40;;;;;;5094778;28;20239;-68
2022/02/04 10:36:39;;;;;;;12.85;10.18;;;9.40;76.00;;;;;;5094766;28;20292;-68
2022/02/04 10:39:27;;;;;;;11.90;9.75;;;9.50;75.10;;;;;;5095067;28;20228;-66
2022/02/04 10:42:15;;;;;;;11.02;7.53;;;9.40;73.40;;;;;;5094246;28;20184;-67
2022/02/04 10:45:22;;;;;;;12.85;8.65;;;9.40;72.40;;;;;;5094524;28;20546;-67
2022/02/04 10:48:11;;;;;;;13.82;9.27;;;9.60;73.50;;;;;;5094021;28;20192;-68
2022/02/04 10:51:06;;;;;;;11.50;8.40;;;9.70;72.40;;;;;;5094047;28;20197;-67
2022/02/04 10:53:58;;;;;;;13.38;9.35;;;9.90;72.40;;;;;;5094128;28;20223;-66
2022/02/04 10:59:29;;;;;;;12.30;10.13;;;10.10;69.40;;;;;;5090747;28;20192;-67
2022/02/04 11:02:14;;;;;;;14.18;9.20;;;10.20;69.00;;;;;;5094281;28;20185;-68
2022/02/04 11:04:52;;;;;;;14.07;9.90;;;10.50;69.40;;;;;;5093795;28;20197;-68
2022/02/04 11:08:03;;;;;;;11.07;8.80;;;12.10;72.50;;;;;;5094389;28;20242;-68
2022/02/04 11:10:46;;;;;;;9.73;8.23;;;14.00;65.70;;;;;;5094086;28;20193;-67
2022/02/04 11:36:38;;;;;;;9.97;7.67;;;26.50;31.30;;;;;;5093810;28;20775;-68
2022/02/04 11:52:06;;;;;;;9.97;8.87;;;;;;;;;;5093469;28;20453;-67
2022/02/04 11:54:43;;;;;;;10.73;9.50;;;;;;;;;;5093513;28;20479;-67
2022/02/04 11:57:29;;;;;;;11.17;7.83;;;;;;;;;;5093573;28;20438;-67
2022/02/04 11:59:58;;;;;;;9.10;7.83;;;;;;;;;;5093281;28;20431;-67
2022/02/04 12:02:33;;;;;;;8.70;7.90;;;;;;;;;;5093245;28;20431;-67
2022/02/04 12:05:35;;;;;;;10.60;8.80;;;27.60;23.40;;;;;;5093327;28;20442;-67
2022/02/04 12:08:31;;;;;;;8.80;7.30;;;22.80;27.20;;;;;;5092621;28;20458;-67
2022/02/04 12:11:11;;;;;;;11.90;7.47;;;22.30;27.80;;;;;;5090242;28;20440;-67
2022/02/04 12:14:09;;;;;;;8.10;7.30;;;22.60;28.70;;;;;;5072708;28;20848;-68
2022/02/04 12:16:53;;;;;;;10.73;7.80;;;24.40;27.40;;;;;;5086172;28;20481;-67
2022/02/04 12:19:36;;;;;;;8.13;7.33;;;25.70;26.10;;;;;;5092706;28;20466;-69
2022/02/04 12:22:04;;;;;;;9.37;8.20;;;26.90;25.10;;;;;;5092135;28;20791;-67
2022/02/04 12:24:38;;;;;;;7.90;7.10;;;27.30;24.50;;;;;;5092379;28;20494;-67
2022/02/04 12:27:37;;;;;;;7.80;7.00;;;28.50;23.40;;;;;;5091409;28;20437;-67
2022/02/04 12:30:40;;;;;;;9.10;8.20;;;30.20;22.30;;;;;;5092900;28;20932;-67
2022/02/04 12:33:07;;;;;;;8.90;7.97;;;31.80;20.30;;;;;;5092138;28;20480;-67
2022/02/04 12:35:34;;;;;;;9.33;8.43;;;32.40;19.30;;;;;;5092469;28;20431;-68
2022/02/04 12:38:02;;;;;;;10.20;7.70;;;32.90;18.90;;;;;;5091835;28;20443;-67
2022/02/04 12:40:31;;;;;;;9.07;8.17;;;33.50;18.40;;;;;;5093089;28;20465;-67
2022/02/04 12:42:58;;;;;;;9.40;8.17;;;34.10;18.00;;;;;;5090880;28;20951;-67
2022/02/04 12:45:29;;;;;;;10.40;9.50;;;34.50;17.10;;;;;;5086996;28;20800;-71
2022/02/04 12:48:04;;;;;;;9.97;7.30;;;35.00;17.40;;;;;;5083785;28;20430;-68
2022/02/04 12:50:31;;;;;;;9.43;8.43;;;35.20;16.80;;;;;;5092645;28;20443;-68
2022/02/04 12:52:58;;;;;;;8.87;8.07;;;35.30;16.30;;;;;;5091841;28;20917;-68
2022/02/04 12:55:36;;;;;;;9.53;8.67;;;35.30;15.60;;;;;;5092192;28;20435;-68
2022/02/04 12:58:15;;;;;;;9.03;8.20;;;35.20;15.70;;;;;;5092828;28;20782;-68
2022/02/04 13:07:29;;;;;;;8.70;7.90;;;35.00;15.80;;;;;;5092644;28;20474;-68
2022/02/04 13:12:08;;;;;;;7.90;7.20;;;34.10;15.20;;;;;;5092917;28;20454;-68
2022/02/04 13:14:36;;;;;;;9.30;7.53;;;33.50;15.70;;;;;;5092487;28;20449;-67
2022/02/04 13:17:04;;;;;;;7.80;7.10;;;32.80;16.00;;;;;;5088964;28;20439;-68
2022/02/04 13:19:32;;;;;;;9.20;8.40;;;32.50;16.60;;;;;;5092070;28;20521;-68
2022/02/04 13:21:59;;;;;;;8.23;7.33;;;32.40;16.40;;;;;;5095296;28;20438;-67
2022/02/04 13:24:26;;;;;;;7.47;6.77;;;31.50;16.80;;;;;;5095027;28;20540;-68
2022/02/04 13:26:53;;;;;;;8.97;8.07;;;30.70;17.90;;;;;;5095087;28;20441;-68
2022/02/04 13:29:25;;;;;;;7.87;7.03;;;30.50;18.40;;;;;;5094923;28;20486;-68
2022/02/04 13:31:54;;;;;;;8.53;7.67;;;30.60;18.40;;;;;;5094697;28;20470;-67
2022/02/04 13:34:27;;;;;;;8.13;7.43;;;30.70;18.60;;;;;;5095055;28;20478;-69
2022/02/04 13:37:01;;;;;;;8.30;7.33;;;30.80;18.10;;;;;;5094966;28;20438;-68
2022/02/04 13:39:37;;;;;;;7.37;6.50;;;30.80;18.20;;;;;;5094668;28;20452;-68
2022/02/04 13:42:12;;;;;;;7.80;6.37;;;30.20;18.90;;;;;;5093009;28;20496;-67
2022/02/04 13:44:48;;;;;;;6.83;6.00;;;29.70;18.80;;;;;;5094834;28;20492;-67
2022/02/04 13:47:27;;;;;;;8.63;7.40;;;29.20;19.80;;;;;;5094985;28;20438;-67
2022/02/04 13:50:14;;;;;;;7.97;5.90;;;28.00;19.40;;;;;;5095256;28;20526;-67
2022/02/04 13:52:56;;;;;;;9.27;7.30;;;26.50;19.90;;;;;;5095320;28;20861;-67
2022/02/04 13:55:31;;;;;;;7.90;7.10;;;24.80;21.90;;;;;;5095878;28;20441;-67
2022/02/04 13:58:10;;;;;;;8.60;6.40;;;23.70;22.90;;;;;;5095822;28;20836;-67
2022/02/04 14:00:50;;;;;;;7.00;6.30;;;22.80;23.90;;;;;;5095658;28;20465;-67
2022/02/04 14:03:23;;;;;;;9.20;6.67;;;22.00;25.20;;;;;;5095647;28;20996;-67
2022/02/04 14:05:56;;;;;;;7.60;6.40;;;21.60;26.10;;;;;;5095461;28;20948;-68
2022/02/04 14:08:30;;;;;;;8.50;6.50;;;21.10;26.20;;;;;;5095451;28;20431;-67
2022/02/04 14:10:59;;;;;;;7.40;6.00;;;20.30;27.60;;;;;;5095460;28;20440;-67
2022/02/04 14:13:28;;;;;;;7.77;6.03;;;19.80;28.50;;;;;;5095205;28;20462;-67
2022/02/04 14:15:59;;;;;;;7.80;6.07;;;19.50;28.70;;;;;;5095452;28;20431;-66
2022/02/04 14:18:28;;;;;;;7.90;5.90;;;19.20;29.00;;;;;;5095299;28;20982;-67
2022/02/04 14:20:55;;;;;;;8.43;5.37;;;18.90;29.30;;;;;;5095080;28;20499;-68
2022/02/04 14:23:23;;;;;;;6.50;5.47;;;18.50;29.50;;;;;;5095153;28;20524;-67
2022/02/04 14:25:58;;;;;;;7.60;5.53;;;18.20;30.00;;;;;;5095148;28;20443;-67
2022/02/04 14:28:35;;;;;;;8.57;5.30;;;18.00;30.70;;;;;;5095201;28;20426;-67
2022/02/04 14:31:08;;;;;;;7.20;5.60;;;17.90;31.10;;;;;;5095130;28;20777;-67
2022/02/04 14:36:31;;;;;;;8.93;5.40;;;17.50;31.40;;;;;;5094898;28;20415;-67
2022/02/04 14:52:54;;;;;;;10.10;5.87;;;16.20;32.60;;;;;;5092545;28;20419;-67
2022/02/04 15:00:53;;;;;;;8.30;6.23;;;15.40;34.60;;;;;;5094384;28;20458;-67
2022/02/04 15:03:26;;;;;;;6.70;5.00;;;15.20;35.00;;;;;;5094294;28;20447;-67
2022/02/04 15:06:03;;;;;;;10.27;3.60;;;15.00;34.90;;;;;;5094214;28;20447;-66
2022/02/04 15:08:34;;;;;;;6.83;4.23;;;14.70;34.50;;;;;;5094554;28;20514;-66
2022/02/04 15:11:03;;;;;;;6.93;3.50;;;14.50;34.50;;;;;;5094312;28;20470;-67
2022/02/04 15:13:31;;;;;;;9.60;5.07;;;14.40;34.90;;;;;;5090648;28;20504;-68
2022/02/04 15:16:01;;;;;;;5.93;4.03;;;14.20;35.00;;;;;;5090174;28;20435;-66
2022/02/04 15:18:28;;;;;;;7.83;5.67;;;14.10;35.10;;;;;;5089846;28;20477;-67
2022/02/04 15:21:00;;;;;;;6.33;5.03;;;13.90;35.60;;;;;;5092660;28;20478;-66
2022/02/04 15:23:27;;;;;;;8.10;5.57;;;13.80;36.40;;;;;;5089895;28;20785;-67
2022/02/04 15:25:56;;;;;;;6.90;4.97;;;13.60;36.80;;;;;;5092616;28;20443;-66
2022/02/04 15:28:41;;;;;;;6.57;4.67;;;13.50;37.30;;;;;;5092583;28;20863;-67
2022/02/04 15:31:14;;;;;;;7.60;5.27;;;13.30;37.70;;;;;;5091330;28;20474;-66
2022/02/04 15:33:43;;;;;;;8.13;5.77;;;13.10;37.80;;;;;;5091809;28;20478;-71
2022/02/04 15:36:12;;;;;;;9.37;5.97;;;13.00;38.20;;;;;;5092270;28;20446;-66
2022/02/04 15:38:39;;;;;;;5.60;4.40;;;13.00;38.60;;;;;;5092347;28;20475;-66
2022/02/04 15:41:13;;;;;;;8.40;5.80;;;12.90;38.70;;;;;;5092197;28;20858;-66
2022/02/04 15:43:41;;;;;;;6.90;5.33;;;12.80;38.90;;;;;;5091938;28;20439;-67
2022/02/04 15:49:13;;;;;;;7.50;5.83;;;12.60;39.00;;;;;;5091973;28;20438;-66
2022/02/04 15:52:00;;;;;;;5.80;4.90;;;12.40;39.20;;;;;;5091243;28;20451;-67
2022/02/04 15:54:44;;;;;;;7.70;5.50;;;12.30;39.60;;;;;;5091816;28;20493;-67
2022/02/04 15:57:32;;;;;;;7.00;5.20;;;12.10;39.80;;;;;;5091329;28;20461;-66
2022/02/04 16:00:27;;;;;;;7.53;5.10;;;12.00;40.40;;;;;;5092311;28;20438;-67
2022/02/04 16:03:15;;;;;;;9.40;5.97;;;11.80;40.90;;;;;;5090340;28;20197;-67
2022/02/04 16:05:44;;;;;;;9.45;6.60;;;11.70;41.20;;;;;;5090881;28;20439;-66
2022/02/04 16:08:16;;;;;;;10.18;6.00;;;11.50;41.50;;;;;;5091999;28;20234;-66
2022/02/04 16:10:56;;;;;;;11.52;5.90;;;11.40;41.60;;;;;;5090906;28;20205;-66
2022/02/04 16:16:21;;;;;;;8.00;5.97;;;11.20;42.40;;;;;;5091527;28;20269;-66
2022/02/04 16:19:00;;;;;;;8.32;6.20;;;11.10;42.70;;;;;;5091893;28;20197;-67
2022/02/04 16:21:34;;;;;;;10.27;6.85;;;11.00;43.30;;;;;;5089776;28;20610;-66
2022/02/04 16:24:33;;;;;;;9.82;6.78;;;10.90;43.40;;;;;;5091378;28;20288;-66
2022/02/04 16:26:55;;;;;;;10.35;6.70;;;10.80;43.50;;;;;;5088852;28;20535;-67
2022/02/04 16:29:22;;;;;;;10.70;7.10;;;10.70;43.60;;;;;;5091866;28;20197;-66
2022/02/04 16:31:49;;;;;;;10.07;6.75;;;10.60;44.10;;;;;;5091495;28;20204;-66
2022/02/04 16:34:17;;;;;;;18.23;11.32;;;10.50;44.50;;;;;;5091297;28;20277;-66
2022/02/04 16:36:46;;;;;;;14.40;9.90;;;10.40;44.60;;;;;;5091690;28;20605;-66
2022/02/04 16:39:15;;;;;;;16.33;6.85;;;10.30;44.80;;;;;;5091516;28;20204;-66
2022/02/04 16:41:53;;;;;;;9.63;6.60;;;10.20;45.10;;;;;;5091101;28;20197;-66
2022/02/04 16:44:20;;;;;;;9.82;7.57;;;10.10;45.40;;;;;;5089860;28;20193;-69
2022/02/04 16:46:48;;;;;;;9.05;6.88;;;10.00;45.80;;;;;;5091802;28;20279;-69
2022/02/04 16:49:15;;;;;;;8.73;5.82;;;9.90;46.70;;;;;;5091727;28;20192;-69
2022/02/04 16:51:42;;;;;;;9.57;7.10;;;9.80;47.10;;;;;;5091414;28;20205;-68
2022/02/04 16:54:09;;;;;;;8.40;7.15;;;9.70;47.30;;;;;;5092377;28;20290;-68
2022/02/04 16:56:38;;;;;;;11.15;8.05;;;9.60;47.50;;;;;;5095584;28;20313;-68
2022/02/04 16:59:05;;;;;;;10.95;7.57;;;9.60;48.50;;;;;;5095574;28;20196;-68
2022/02/04 17:01:32;;;;;;;11.35;7.82;;;9.50;48.20;;;;;;5095447;28;20567;-68
2022/02/04 17:04:00;;;;;;;15.68;7.53;;;9.40;48.40;;;;;;5095059;28;20281;-69
2022/02/04 17:06:33;;;;;;;12.20;7.70;;;9.30;48.90;;;;;;5095307;28;20265;-69
2022/02/04 17:09:19;;;;;;;8.43;6.43;;;9.20;49.50;;;;;;5094919;28;20196;-69
2022/02/04 17:11:50;;;;;;;9.52;7.28;;;9.10;49.50;;;;;;5095198;28;20197;-69
2022/02/04 17:14:17;;;;;;;10.55;7.30;;;9.00;50.00;;;;;;5095262;28;20240;-69
2022/02/04 17:16:45;;;;;;;9.55;6.85;;;8.90;50.20;;;;;;5095282;28;20197;-68
2022/02/04 17:19:14;;;;;;;10.65;6.75;;;8.80;50.80;;;;;;5095102;28;20193;-68
2022/02/04 17:21:41;;;;;;;10.35;7.38;;;8.70;52.00;;;;;;5095289;28;20193;-68
2022/02/04 17:24:12;;;;;;;8.32;6.72;;;8.70;52.30;;;;;;5095136;28;20192;-68
2022/02/04 17:26:40;;;;;;;11.45;6.63;;;8.70;52.70;;;;;;5095191;28;20241;-68
2022/02/04 17:29:08;;;;;;;10.13;7.70;;;8.70;52.80;;;;;;5095350;28;20197;-68
2022/02/04 17:31:35;;;;;;;10.90;7.32;;;8.70;52.80;;;;;;5094475;28;20197;-70
2022/02/04 17:34:04;;;;;;;12.85;8.75;;;8.60;53.00;;;;;;5094706;28;20253;-72
2022/02/04 17:36:33;;;;;;;11.02;8.35;;;8.60;53.30;;;;;;5095118;28;20196;-69
2022/02/04 17:39:01;;;;;;;11.93;8.35;;;8.60;53.70;;;;;;5094657;28;20615;-68
2022/02/04 17:41:28;;;;;;;12.73;9.32;;;8.60;53.80;;;;;;5094994;28;20185;-68
2022/02/04 17:43:57;;;;;;;16.15;9.75;;;8.50;54.50;;;;;;5094515;28;20197;-68